»·PEaware :: N56PA KMOD-KUDD

N56PA :: KMOD-KUDD

FLIGHT INFORMATION

Flight Status: Arrived
Operator: Privately registered:
United States
More flights under this callsign
Pilot: Andrew R. (5764)
Aircraft: Unknown
(LEGA)
More flights by this aircraft type
Origin: KMOD Modesto City-Co-Sham
United States
Destination: KUDD Bermuda Dunes
United States
More flights between these airports :: More routes between these airports
Route: +HYP CZQ LANDO PMD
File this flight plan on PilotEdge
Remarks:
Altitude:
(Current/Filed)
37,000ft
Speed:
(Current/Filed)
450kts
Departed: 27-Sep-19 02:15 PM
Arrived: 27-Sep-19 03:06 PM
Distance/Time
Traveled:
326nm/0:51
Distance/Time
To Go:
Arrived

Flight Plot

Page will automatically refresh every two minutes.

Flight plan parsing failed; only flown route is shown


Map Options




Map Legend


Flown Route
Filed Route
Departure Airport
Arrival Airport
Navaid (VOR, NDB)
Fix

Horizontal Profiles

Position Reports

Time Latitude Longitude Heading Altitude Ground
Speed
27-Sep-19 14:09 37.624449 -120.947891 216 96ft 0kts
27-Sep-19 14:10 37.624449 -120.947891 216 96ft 0kts
27-Sep-19 14:11 37.623763 -120.947333 125 96ft 15kts
27-Sep-19 14:12 37.621486 -120.943159 132 96ft 0kts
27-Sep-19 14:13 37.620869 -120.943152 218 96ft 14kts
27-Sep-19 14:14 37.630308 -120.961495 303 509ft 170kts
27-Sep-19 14:15 37.599635 -121.006202 164 4443ft 278kts
27-Sep-19 14:16 37.559780 -120.927445 123 8031ft 286kts
27-Sep-19 14:17 37.510418 -120.846213 130 11557ft 304kts
27-Sep-19 14:18 37.447994 -120.749871 131 14839ft 361kts
27-Sep-19 14:19 37.382036 -120.648591 131 18367ft 389kts
27-Sep-19 14:20 37.310926 -120.541423 140 21873ft 410kts
27-Sep-19 14:21 37.232576 -120.439442 114 25455ft 443kts
27-Sep-19 14:22 37.162191 -120.309790 129 28974ft 467kts
27-Sep-19 14:23 37.084441 -120.173802 127 32495ft 494kts
27-Sep-19 14:24 37.003881 -120.031981 125 35962ft 508kts
27-Sep-19 14:25 36.925365 -119.889284 125 36907ft 479kts
27-Sep-19 14:26 36.838094 -119.764769 146 36913ft 483kts
27-Sep-19 14:27 36.716451 -119.706006 155 36897ft 476kts
27-Sep-19 14:28 36.602158 -119.621843 153 36916ft 477kts
27-Sep-19 14:29 36.485028 -119.544736 155 36920ft 477kts
27-Sep-19 14:30 36.367189 -119.469019 155 36921ft 477kts
27-Sep-19 14:31 36.249724 -119.393566 154 36922ft 477kts
27-Sep-19 14:32 36.131775 -119.317817 155 36922ft 477kts
27-Sep-19 14:33 36.014306 -119.242294 155 36985ft 477kts
27-Sep-19 14:34 35.898261 -119.168431 155 36969ft 477kts
27-Sep-19 14:35 35.781665 -119.094979 155 36951ft 477kts
27-Sep-19 14:36 35.663836 -119.020988 155 36901ft 476kts
27-Sep-19 14:37 35.546034 -118.947266 155 36906ft 476kts
27-Sep-19 14:38 35.427978 -118.873629 155 36909ft 475kts
27-Sep-19 14:39 35.310664 -118.800693 155 36910ft 474kts
27-Sep-19 14:40 35.192935 -118.727739 155 36939ft 474kts
27-Sep-19 14:41 35.076992 -118.656123 155 37005ft 474kts
27-Sep-19 14:43 34.973827 -118.559760 130 37023ft 476kts
27-Sep-19 14:44 34.889582 -118.437253 130 36978ft 469kts
27-Sep-19 14:45 34.817495 -118.332562 130 36916ft 468kts
27-Sep-19 14:46 34.734284 -118.212131 130 36912ft 468kts
27-Sep-19 14:47 34.650938 -118.091909 130 36830ft 456kts
27-Sep-19 14:48 34.583350 -117.964038 120 35309ft 453kts
27-Sep-19 14:49 34.519197 -117.831362 120 33818ft 456kts
27-Sep-19 14:50 34.454903 -117.698872 120 32338ft 459kts
27-Sep-19 14:51 34.389848 -117.565315 120 30855ft 461kts
27-Sep-19 14:52 34.324251 -117.431156 120 29376ft 464kts
27-Sep-19 14:53 34.258901 -117.297615 121 27909ft 469kts
27-Sep-19 14:54 34.192228 -117.162681 120 26425ft 472kts
27-Sep-19 14:55 34.124719 -117.026174 120 25988ft 475kts
27-Sep-19 14:56 34.059068 -116.893934 120 24629ft 439kts
27-Sep-19 14:57 33.994986 -116.765163 120 22612ft 444kts
27-Sep-19 14:58 33.932974 -116.641153 120 20436ft 405kts
27-Sep-19 14:59 33.889166 -116.553832 120 18103ft 373kts
27-Sep-19 15:00 33.837031 -116.450180 120 14866ft 347kts
27-Sep-19 15:01 33.790450 -116.365447 126 9928ft 278kts
27-Sep-19 15:02 33.744197 -116.307591 137 5709ft 202kts
27-Sep-19 15:02 33.716987 -116.270802 119 3521ft 153kts
27-Sep-19 15:04 33.734177 -116.243312 312 973ft 135kts
27-Sep-19 15:05 33.749299 -116.276946 296 71ft 47kts
27-Sep-19 15:05 33.750333 -116.280758 134 71ft 0kts
27-Sep-19 15:06 33.749910 -116.279672 121 71ft 3kts
27-Sep-19 15:08 33.748174 -116.275409 115 71ft 16kts
27-Sep-19 15:08 33.746416 -116.271170 113 71ft 16kts
27-Sep-19 15:09 33.745880 -116.270815 272 71ft 0kts
27-Sep-19 15:10 33.745880 -116.270815 272 71ft 0kts
27-Sep-19 15:11 33.745880 -116.270815 272 71ft 0kts
27-Sep-19 15:12 33.745880 -116.270815 272 71ft 0kts
27-Sep-19 15:13 33.745880 -116.270815 272 71ft 0kts
27-Sep-19 15:14 33.745880 -116.270815 272 71ft 0kts
27-Sep-19 15:15 33.745880 -116.270815 272 71ft 0kts
27-Sep-19 15:16 33.745880 -116.270815 272 71ft 0kts
27-Sep-19 15:17 33.745880 -116.270815 272 71ft 0kts
27-Sep-19 15:18 33.745880 -116.270815 272 71ft 0kts
27-Sep-19 15:19 33.745880 -116.270815 272 71ft 0kts

Navigation Log

Ident Type
Flight plan parsing failed, navigation log unavailable